Time;durP1;ratioP1;P1;durP2;ratioP2;P2;SDS_P1;SDS_P2;PMS_P1;PMS_P2;Temp;Humidity;BMP_temperature;BMP_pressure;BME280_temperature;BME280_humidity;BME280_pressure;Samples;Min_cycle;Max_cycle;Signal;HPM_P1;HPM_P2
2024/05/07 00:02:45;;;;;;;1.75;1.50;;;;;;;12.74;78.62;97749.66;5463182;26;20005;-63
2024/05/07 00:05:34;;;;;;;1.83;1.48;;;;;;;12.71;79.10;97742.78;5462813;26;20036;-65
2024/05/07 00:08:21;;;;;;;2.38;1.50;;;;;;;12.90;79.30;97758.41;5438151;26;20009;-61
2024/05/07 00:11:06;;;;;;;2.30;1.58;;;;;;;12.63;78.50;97743.25;5438237;26;20048;-66
2024/05/07 00:13:53;;;;;;;1.92;1.27;;;;;;;12.58;79.65;97754.94;5463136;26;20058;-63
2024/05/07 00:16:39;;;;;;;2.65;1.70;;;;;;;12.41;79.26;97748.84;5438092;26;20005;-64
2024/05/07 00:19:25;;;;;;;1.42;1.33;;;;;;;12.64;78.77;97749.34;5463806;26;20005;-63
2024/05/07 00:22:11;;;;;;;2.05;1.70;;;;;;;12.38;79.84;97753.44;5463598;26;20471;-64
2024/05/07 00:24:57;;;;;;;2.00;1.50;;;;;;;12.21;80.34;97760.50;5490096;26;20067;-62
2024/05/07 00:27:42;;;;;;;3.00;1.48;;;;;;;12.33;81.47;97751.03;5463181;26;20058;-66
2024/05/07 00:30:30;;;;;;;2.70;1.70;;;;;;;12.53;80.51;97752.59;5437634;26;20005;-64
2024/05/07 00:33:25;;;;;;;2.17;1.40;;;;;;;12.75;78.65;97754.00;5465555;26;20062;-63
2024/05/07 00:36:11;;;;;;;2.20;1.63;;;;;;;12.77;78.89;97741.59;5463408;26;20791;-61
2024/05/07 00:38:57;;;;;;;4.05;1.88;;;;;;;12.78;78.76;97759.13;5489734;26;20051;-61
2024/05/07 00:41:43;;;;;;;5.13;2.58;;;;;;;12.71;78.26;97760.41;5463083;26;20005;-63
2024/05/07 00:44:28;;;;;;;3.22;1.80;;;;;;;12.46;79.82;97757.34;5462949;26;20070;-61
2024/05/07 00:47:15;;;;;;;1.50;1.30;;;;;;;12.61;79.12;97768.78;5437518;26;20004;-63
2024/05/07 00:50:01;;;;;;;3.30;1.60;;;;;;;12.33;79.90;97760.75;5462476;26;20066;-63
2024/05/07 00:52:51;;;;;;;1.45;1.35;;;;;;;12.32;80.19;97769.56;5462359;26;20005;-63
2024/05/07 00:55:38;;;;;;;2.20;1.60;;;;;;;11.98;80.29;97739.81;5462358;26;20005;-63
2024/05/07 00:58:28;;;;;;;1.83;1.33;;;;;;;12.30;79.42;97774.06;5462168;26;20449;-64
2024/05/07 01:01:14;;;;;;;3.95;1.50;;;;;;;12.15;80.45;97781.03;5462581;26;20523;-62
2024/05/07 01:04:00;;;;;;;3.78;1.50;;;;;;;12.19;81.05;97770.22;5462126;26;20009;-66
2024/05/07 01:06:47;;;;;;;2.17;1.55;;;;;;;12.25;80.18;97776.97;5437079;26;20009;-62
2024/05/07 01:09:33;;;;;;;2.13;1.67;;;;;;;11.90;80.19;97740.19;5435900;26;20013;-64
2024/05/07 01:12:19;;;;;;;2.00;1.50;;;;;;;12.10;80.83;97783.91;5489382;26;20031;-62
2024/05/07 01:15:05;;;;;;;1.70;1.55;;;;;;;12.02;81.12;97784.31;5462369;26;20461;-65
2024/05/07 01:17:51;;;;;;;1.70;1.50;;;;;;;12.25;80.10;97783.09;5436848;26;20456;-61
2024/05/07 01:20:37;;;;;;;3.85;1.65;;;;;;;12.40;80.36;97780.53;5462289;26;20005;-61
2024/05/07 01:23:24;;;;;;;3.55;1.58;;;;;;;12.29;80.69;97783.75;5461890;26;20009;-61
2024/05/07 01:26:10;;;;;;;1.90;1.50;;;;;;;12.13;80.83;97762.69;5461913;26;20008;-63
2024/05/07 01:28:57;;;;;;;4.75;1.58;;;;;;;12.05;81.10;97762.22;5461862;26;20030;-61
2024/05/07 01:31:45;;;;;;;2.58;1.50;;;;;;;12.26;80.90;97776.03;5461626;26;20066;-61
2024/05/07 01:34:31;;;;;;;2.47;1.48;;;;;;;12.20;79.79;97771.09;5436638;26;20004;-61
2024/05/07 01:37:17;;;;;;;4.57;1.80;;;;;;;12.42;80.48;97774.28;5461815;26;20004;-63
2024/05/07 01:40:03;;;;;;;2.30;1.60;;;;;;;12.24;80.03;97770.00;5436317;26;20030;-61
2024/05/07 01:43:02;;;;;;;1.67;1.45;;;;;;;12.15;80.25;97770.50;5465118;26;20066;-63
2024/05/07 01:45:49;;;;;;;2.92;1.63;;;;;;;12.17;80.50;97776.53;5436556;26;20005;-68
2024/05/07 01:48:35;;;;;;;2.08;1.58;;;;;;;12.37;79.77;97765.75;5461817;26;20006;-65
2024/05/07 01:51:21;;;;;;;2.45;1.55;;;;;;;12.18;80.11;97759.78;5437066;26;20067;-66
2024/05/07 01:54:08;;;;;;;3.53;2.45;;;;;;;12.02;81.15;97751.84;5462062;26;20296;-66
2024/05/07 01:56:54;;;;;;;3.13;1.60;;;;;;;12.25;80.63;97775.19;5488612;26;20337;-64
2024/05/07 01:59:40;;;;;;;1.83;1.45;;;;;;;12.45;79.84;97770.59;5461638;26;20102;-64
2024/05/07 02:02:26;;;;;;;3.65;1.75;;;;;;;12.19;80.34;97774.66;5435931;26;20039;-64
2024/05/07 02:05:15;;;;;;;2.38;1.58;;;;;;;12.25;80.93;97771.69;5425958;26;20067;-66
2024/05/07 02:08:01;;;;;;;2.08;1.50;;;;;;;12.24;81.58;97770.84;5450463;26;20005;-64
2024/05/07 02:10:46;;;;;;;2.58;1.60;;;;;;;12.28;80.14;97755.72;5450625;26;20009;-61
2024/05/07 02:13:32;;;;;;;2.50;1.50;;;;;;;12.29;80.32;97778.50;5450361;26;20010;-66
2024/05/07 02:16:18;;;;;;;2.10;1.60;;;;;;;12.37;80.08;97741.19;5425428;26;20041;-64
2024/05/07 02:19:04;;;;;;;2.70;1.60;;;;;;;12.51;80.17;97766.75;5450307;26;20014;-65
2024/05/07 02:21:50;;;;;;;1.77;1.50;;;;;;;12.59;79.55;97757.50;5452204;26;20517;-66
2024/05/07 02:24:36;;;;;;;1.88;1.48;;;;;;;12.60;79.39;97753.09;5455513;26;20068;-65
2024/05/07 02:27:22;;;;;;;2.45;1.55;;;;;;;12.33;79.62;97745.78;5455536;26;20067;-66
2024/05/07 02:30:08;;;;;;;3.00;1.90;;;;;;;11.94;80.74;97760.19;5453899;26;20009;-63
2024/05/07 02:33:13;;;;;;;2.55;1.40;;;;;;;12.07;80.63;97758.59;5453905;26;20002;-63
2024/05/07 02:36:01;;;;;;;2.45;1.50;;;;;;;11.90;82.00;97754.22;5455283;26;20445;-66
2024/05/07 02:38:47;;;;;;;2.35;1.50;;;;;;;12.09;81.27;97767.25;5453773;26;20009;-63
2024/05/07 02:41:32;;;;;;;3.35;1.60;;;;;;;12.14;81.36;97764.34;5453791;26;20061;-65
2024/05/07 02:44:18;;;;;;;5.13;1.63;;;;;;;12.14;80.89;97755.63;5428486;26;20006;-60
2024/05/07 02:47:04;;;;;;;2.25;1.63;;;;;;;12.07;81.61;97763.00;5453503;26;20400;-68
2024/05/07 02:49:50;;;;;;;2.38;1.60;;;;;;;11.95;82.95;97739.97;5453918;26;20075;-64
2024/05/07 02:52:36;;;;;;;2.17;1.70;;;;;;;11.77;82.68;97734.72;5453515;26;20071;-65
2024/05/07 02:55:22;;;;;;;2.92;2.05;;;;;;;11.68;84.70;97749.22;5428580;26;20010;-65
2024/05/07 02:58:07;;;;;;;2.88;1.88;;;;;;;12.05;83.81;97749.91;5453339;26;20044;-64
2024/05/07 03:00:57;;;;;;;2.67;1.88;;;;;;;12.19;81.76;97746.53;5455042;26;20006;-64
2024/05/07 03:03:44;;;;;;;2.17;1.63;;;;;;;12.50;80.13;97754.56;5428169;26;20335;-65
2024/05/07 03:06:30;;;;;;;4.38;2.00;;;;;;;12.36;79.83;97755.31;5453305;26;20028;-66
2024/05/07 03:09:15;;;;;;;3.45;2.03;;;;;;;12.39;80.00;97744.56;5453431;26;20006;-63
2024/05/07 03:12:01;;;;;;;2.75;1.92;;;;;;;12.49;79.11;97748.41;5453130;26;20071;-64
2024/05/07 03:14:47;;;;;;;2.15;1.67;;;;;;;12.31;79.20;97746.81;5403517;26;20091;-65
2024/05/07 03:17:33;;;;;;;3.75;2.10;;;;;;;12.11;80.97;97758.41;5453443;26;20039;-62
2024/05/07 03:20:19;;;;;;;3.53;2.30;;;;;;;11.81;82.94;97757.31;5429454;26;20013;-60
2024/05/07 03:23:20;;;;;;;2.90;2.08;;;;;;;11.82;82.79;97766.06;5433079;26;20006;-60
2024/05/07 03:26:09;;;;;;;2.70;1.92;;;;;;;12.07;83.25;97766.50;5428979;26;20071;-60
2024/05/07 03:28:55;;;;;;;2.85;1.90;;;;;;;12.44;81.46;97756.59;5453317;26;20002;-64
2024/05/07 03:31:43;;;;;;;3.90;2.13;;;;;;;12.54;80.21;97767.44;5453111;26;20454;-64
2024/05/07 03:34:28;;;;;;;6.30;2.50;;;;;;;12.39;80.35;97765.66;5453864;26;20571;-65
2024/05/07 03:37:15;;;;;;;3.20;2.28;;;;;;;12.16;81.27;97775.69;5427909;26;20006;-65
2024/05/07 03:40:01;;;;;;;3.40;2.13;;;;;;;12.00;81.25;97765.09;5454361;26;20005;-64
2024/05/07 03:42:49;;;;;;;3.42;2.50;;;;;;;11.87;81.83;97749.09;5428488;26;20006;-65
2024/05/07 03:45:35;;;;;;;3.97;2.60;;;;;;;11.67;81.21;97696.66;5427707;26;20009;-66
2024/05/07 03:48:21;;;;;;;4.20;2.42;;;;;;;12.11;81.57;97782.97;5453018;26;20005;-64
2024/05/07 03:51:08;;;;;;;5.00;2.60;;;;;;;11.86;82.39;97781.63;5452894;26;20005;-63
2024/05/07 03:53:53;;;;;;;3.53;2.28;;;;;;;11.74;82.46;97758.56;5453127;26;20457;-66
2024/05/07 03:56:38;;;;;;;3.25;2.25;;;;;;;11.76;82.69;97793.56;5452788;26;20009;-64
2024/05/07 03:59:25;;;;;;;3.55;2.40;;;;;;;11.83;82.74;97783.53;5452764;26;20081;-66
2024/05/07 04:02:11;;;;;;;3.22;2.40;;;;;;;11.86;82.54;97788.66;5452641;26;20073;-66
2024/05/07 04:04:57;;;;;;;23.70;12.35;;;;;;;11.06;86.55;97800.59;5427546;26;20039;-62
2024/05/07 04:07:42;;;;;;;11.48;5.72;;;;;;;11.23;85.82;97792.72;5427548;26;20068;-67
2024/05/07 04:10:28;;;;;;;3.15;2.20;;;;;;;11.39;85.49;97798.06;5452648;26;20044;-62
2024/05/07 04:13:21;;;;;;;4.33;2.40;;;;;;;11.46;84.71;97809.13;5453899;26;20447;-66
2024/05/07 04:16:08;;;;;;;2.95;2.00;;;;;;;11.22;85.73;97811.19;5452559;26;20357;-62
2024/05/07 04:18:54;;;;;;;3.30;2.22;;;;;;;11.17;85.98;97806.19;5427401;26;20010;-65
2024/05/07 04:21:40;;;;;;;4.60;2.38;;;;;;;11.10;86.85;97812.66;5452268;26;20370;-65
2024/05/07 04:24:26;;;;;;;3.53;2.33;;;;;;;11.09;86.53;97797.81;5452623;26;20067;-64
2024/05/07 04:27:12;;;;;;;4.65;2.95;;;;;;;11.55;85.77;97811.31;5427186;26;20449;-64
2024/05/07 04:29:58;;;;;;;3.10;2.25;;;;;;;11.63;85.11;97805.63;5452541;26;20454;-65
2024/05/07 04:32:43;;;;;;;3.40;2.33;;;;;;;12.03;83.35;97808.84;5452396;26;20009;-66
2024/05/07 04:35:29;;;;;;;3.63;2.20;;;;;;;12.05;83.03;97812.25;5452249;26;20030;-64
2024/05/07 04:38:15;;;;;;;4.72;2.30;;;;;;;11.99;82.80;97816.06;5452194;26;20045;-66
2024/05/07 04:41:01;;;;;;;3.45;2.33;;;;;;;12.25;82.09;97814.69;5452124;26;20006;-64
2024/05/07 04:43:47;;;;;;;3.97;2.10;;;;;;;12.22;82.26;97809.56;5452060;26;20067;-65
2024/05/07 04:46:33;;;;;;;3.42;2.38;;;;;;;11.89;80.96;97730.59;5452577;26;20006;-62
2024/05/07 04:49:19;;;;;;;4.68;2.40;;;;;;;12.39;81.25;97802.53;5402335;26;20005;-64
2024/05/07 04:52:05;;;;;;;2.90;2.00;;;;;;;12.53;79.46;97802.66;5452147;26;20370;-63
2024/05/07 04:54:51;;;;;;;3.00;2.13;;;;;;;12.62;79.76;97817.94;5452289;26;20431;-61
2024/05/07 04:57:37;;;;;;;3.20;2.38;;;;;;;12.63;79.07;97824.06;5453693;26;20006;-63
2024/05/07 05:00:23;;;;;;;3.40;2.25;;;;;;;12.46;80.02;97812.66;5451651;26;20009;-62
2024/05/07 05:03:28;;;;;;;4.88;2.90;;;;;;;12.44;79.51;97814.53;5453085;26;20010;-62
2024/05/07 05:06:14;;;;;;;4.90;2.75;;;;;;;12.34;79.50;97801.97;5426541;26;20068;-60
2024/05/07 05:09:00;;;;;;;5.90;2.47;;;;;;;12.47;80.06;97829.31;5453217;26;20005;-59
2024/05/07 05:11:48;;;;;;;4.15;2.33;;;;;;;12.50;80.70;97826.53;5453196;26;20006;-59
2024/05/07 05:14:34;;;;;;;143.70;63.17;;;;;;;12.79;79.06;97837.22;5453031;26;20013;-60
2024/05/07 05:17:23;;;;;;;3.10;2.25;;;;;;;12.35;79.29;97806.28;5451447;26;20010;-61
2024/05/07 05:20:11;;;;;;;2.75;2.10;;;;;;;12.61;78.51;97842.59;5426093;26;20006;-64
2024/05/07 05:23:16;;;;;;;3.03;2.22;;;;;;;12.70;79.02;97840.38;5452853;26;20401;-65
2024/05/07 05:26:02;;;;;;;7.70;2.03;;;;;;;12.88;78.43;97836.75;5451556;26;20006;-65
2024/05/07 05:28:49;;;;;;;3.03;2.28;;;;;;;12.43;77.99;97812.81;5452658;26;20009;-67
2024/05/07 05:31:35;;;;;;;3.63;2.15;;;;;;;12.67;78.66;97830.88;5426248;26;20041;-66
2024/05/07 05:34:21;;;;;;;2.67;2.00;;;;;;;12.83;78.40;97831.72;5451245;26;20338;-64
2024/05/07 05:37:08;;;;;;;3.45;2.22;;;;;;;12.68;78.65;97831.72;5450997;26;20076;-65
2024/05/07 05:39:54;;;;;;;3.17;2.30;;;;;;;12.77;77.47;97839.97;5450986;26;20064;-64
2024/05/07 05:42:40;;;;;;;4.22;2.10;;;;;;;12.76;79.07;97845.34;5452482;26;20005;-66
2024/05/07 05:45:25;;;;;;;2.70;2.15;;;;;;;12.59;78.20;97847.09;5452490;26;20067;-65
2024/05/07 05:48:11;;;;;;;4.32;2.72;;;;;;;12.22;79.47;97841.16;5450852;26;20510;-65
2024/05/07 05:50:58;;;;;;;3.38;2.25;;;;;;;12.19;79.38;97853.66;5450902;26;20006;-61
2024/05/07 05:53:44;;;;;;;5.95;2.42;;;;;;;12.52;79.03;97847.53;5450578;26;20010;-64
2024/05/07 05:56:29;;;;;;;2.92;2.22;;;;;;;12.58;78.44;97855.06;5451786;26;20013;-66
2024/05/07 05:59:18;;;;;;;3.80;2.50;;;;;;;12.61;78.61;97847.00;5455881;26;20009;-65
2024/05/07 06:02:04;;;;;;;3.97;2.40;;;;;;;12.60;78.59;97850.59;5455778;26;20005;-65
2024/05/07 06:04:50;;;;;;;3.65;2.55;;;;;;;12.51;77.68;97840.53;5454095;26;20067;-66
2024/05/07 06:07:37;;;;;;;3.83;2.67;;;;;;;12.80;77.81;97850.31;5454248;26;20005;-61
2024/05/07 06:10:23;;;;;;;3.85;2.58;;;;;;;12.54;78.91;97857.03;5429194;26;20001;-62
2024/05/07 06:13:21;;;;;;;3.08;2.45;;;;;;;12.51;78.18;97865.13;5454506;26;20071;-65
2024/05/07 06:16:10;;;;;;;4.57;2.90;;;;;;;12.51;78.75;97867.75;5454103;26;20400;-65
2024/05/07 06:18:58;;;;;;;7.03;2.17;;;;;;;12.70;78.23;97867.59;5454168;26;20010;-62
2024/05/07 06:21:43;;;;;;;4.20;2.55;;;;;;;12.87;78.86;97869.28;5428968;26;20006;-63
2024/05/07 06:24:29;;;;;;;3.42;2.38;;;;;;;12.77;77.37;97871.59;5429315;26;20067;-62
2024/05/07 06:27:15;;;;;;;4.60;2.40;;;;;;;12.76;76.63;97879.59;5455718;26;20337;-61
2024/05/07 06:30:01;;;;;;;6.45;2.47;;;;;;;12.75;77.32;97867.34;5455513;26;20034;-64
2024/05/07 06:32:56;;;;;;;5.28;2.47;;;;;;;12.40;78.05;97846.38;5453960;26;20067;-65
2024/05/07 06:35:42;;;;;;;3.25;2.50;;;;;;;12.53;79.65;97881.69;5453837;26;20068;-64
2024/05/07 06:38:28;;;;;;;4.05;2.67;;;;;;;12.58;78.38;97873.53;5428677;26;20071;-60
2024/05/07 06:41:14;;;;;;;4.72;2.65;;;;;;;12.63;79.14;97867.09;5453832;26;20006;-65
2024/05/07 06:44:00;;;;;;;4.57;2.90;;;;;;;12.69;77.99;97892.25;5428732;26;20005;-62
2024/05/07 06:46:45;;;;;;;7.03;2.97;;;;;;;12.66;78.85;97895.88;5453788;26;20005;-65
2024/05/07 06:49:32;;;;;;;4.90;2.83;;;;;;;12.73;78.48;97896.41;5453663;26;20014;-61
2024/05/07 06:52:18;;;;;;;4.78;3.33;;;;;;;12.51;79.84;97883.56;5428580;26;20465;-65
2024/05/07 06:55:05;;;;;;;5.60;3.03;;;;;;;12.72;79.33;97886.81;5429001;26;20511;-61
2024/05/07 06:57:51;;;;;;;6.03;3.22;;;;;;;12.73;78.64;97898.19;5453715;26;20071;-61
2024/05/07 07:00:37;;;;;;;40.25;18.45;;;;;;;12.94;78.43;97909.34;5428667;26;20368;-61
2024/05/07 07:03:27;;;;;;;7.80;4.95;;;;;;;12.60;78.57;97909.41;5453468;26;20005;-63
2024/05/07 07:06:13;;;;;;;6.28;3.35;;;;;;;12.78;79.88;97912.00;5453424;26;20503;-65
2024/05/07 07:08:59;;;;;;;4.72;3.03;;;;;;;12.67;80.00;97896.75;5453710;26;20084;-61
2024/05/07 07:11:46;;;;;;;6.05;3.05;;;;;;;12.73;79.78;97892.94;5453412;26;20019;-61
2024/05/07 07:14:32;;;;;;;4.68;3.15;;;;;;;12.86;80.69;97912.44;5454735;26;20010;-60
2024/05/07 07:17:21;;;;;;;4.38;2.90;;;;;;;13.03;79.68;97908.84;5453262;26;20071;-65
2024/05/07 07:20:07;;;;;;;3.58;2.63;;;;;;;12.94;79.48;97912.00;5428174;26;20009;-62
2024/05/07 07:23:12;;;;;;;4.50;3.05;;;;;;;12.77;79.48;97907.63;5432598;26;20006;-62
2024/05/07 07:25:59;;;;;;;5.40;3.17;;;;;;;12.90;80.79;97915.75;5428518;26;20044;-62
2024/05/07 07:28:45;;;;;;;4.68;2.95;;;;;;;13.09;80.81;97926.09;5453139;26;20010;-63
2024/05/07 07:31:31;;;;;;;4.60;3.25;;;;;;;13.00;78.95;97912.50;5428126;26;20005;-62
2024/05/07 07:34:18;;;;;;;8.50;3.55;;;;;;;12.95;79.28;97925.09;5428070;26;20009;-64
2024/05/07 07:37:06;;;;;;;5.82;3.15;;;;;;;13.09;79.56;97926.97;5427774;26;20006;-61
2024/05/07 07:39:53;;;;;;;5.22;3.13;;;;;;;13.12;80.04;97931.22;5452989;26;20067;-61
2024/05/07 07:42:40;;;;;;;4.63;2.97;;;;;;;12.96;79.67;97896.94;5452916;26;20006;-62
2024/05/07 07:45:26;;;;;;;4.90;3.08;;;;;;;13.04;80.68;97929.03;5427892;26;20009;-62
2024/05/07 07:48:12;;;;;;;4.40;3.08;;;;;;;13.10;80.79;97939.22;5427730;26;20068;-63
2024/05/07 07:50:58;;;;;;;5.65;3.22;;;;;;;13.13;80.53;97935.56;5452801;26;20072;-63
2024/05/07 07:53:44;;;;;;;5.30;3.00;;;;;;;12.96;81.64;97918.03;5453299;26;20358;-65
2024/05/07 07:56:30;;;;;;;6.15;3.20;;;;;;;13.17;80.06;97937.94;5453485;26;20044;-61
2024/05/07 07:59:16;;;;;;;4.40;3.17;;;;;;;12.98;81.47;97938.13;5455150;26;20035;-65
2024/05/07 08:02:06;;;;;;;5.25;3.20;;;;;;;12.92;81.15;97943.72;5429618;26;20009;-60
2024/05/07 08:04:53;;;;;;;4.80;2.95;;;;;;;13.04;81.35;97952.75;5452416;26;20473;-65
2024/05/07 08:07:39;;;;;;;4.47;3.05;;;;;;;13.01;81.61;97940.56;5427791;26;20044;-65
2024/05/07 08:10:25;;;;;;;4.00;2.85;;;;;;;13.04;82.49;97934.28;5452675;26;20032;-65
2024/05/07 08:13:21;;;;;;;5.15;3.10;;;;;;;13.21;81.99;97951.81;5452587;26;20524;-66
2024/05/07 08:16:07;;;;;;;7.15;3.47;;;;;;;13.10;83.05;97955.03;5427369;26;20500;-65
2024/05/07 08:18:53;;;;;;;5.05;3.30;;;;;;;12.84;85.11;97961.72;5427410;26;20516;-66
2024/05/07 08:21:39;;;;;;;5.32;3.50;;;;;;;12.62;86.84;97925.16;5427480;26;20007;-65
2024/05/07 08:24:25;;;;;;;4.53;3.20;;;;;;;12.81;87.61;97941.66;5452379;26;20006;-65
2024/05/07 08:27:11;;;;;;;6.25;3.72;;;;;;;12.91;88.91;97963.09;5453926;26;20009;-67
2024/05/07 08:29:59;;;;;;;4.93;3.38;;;;;;;13.20;88.95;97964.16;5452285;26;20010;-65
2024/05/07 08:32:45;;;;;;;60.72;28.77;;;;;;;13.26;87.49;97941.84;5452184;26;20045;-66
2024/05/07 08:35:31;;;;;;;26.70;12.85;;;;;;;13.36;85.30;97968.59;5427330;26;20075;-61
2024/05/07 08:38:17;;;;;;;4.97;3.15;;;;;;;13.19;86.00;97978.28;5452272;26;20010;-60
2024/05/07 08:41:08;;;;;;;3.60;2.67;;;;;;;13.00;87.13;97952.06;5427090;26;20149;-65
2024/05/07 08:43:55;;;;;;;5.45;3.00;;;;;;;13.06;88.36;97973.75;5452269;26;20354;-61
2024/05/07 08:46:44;;;;;;;4.60;3.05;;;;;;;13.19;87.52;97982.69;5427222;26;20068;-61
2024/05/07 08:49:31;;;;;;;3.97;2.80;;;;;;;13.17;86.59;97982.78;5427016;26;20449;-64
2024/05/07 08:52:22;;;;;;;9.25;3.08;;;;;;;13.17;87.45;97987.19;5426904;26;20033;-63
2024/05/07 08:55:09;;;;;;;5.75;2.70;;;;;;;13.33;85.48;97985.47;5452134;26;20350;-66
2024/05/07 08:57:56;;;;;;;5.80;2.90;;;;;;;13.33;86.69;97993.38;5451849;26;20035;-65
2024/05/07 09:00:45;;;;;;;6.28;2.83;;;;;;;13.30;84.13;97984.75;5453313;26;20031;-65
2024/05/07 09:03:31;;;;;;;4.40;2.90;;;;;;;13.25;86.18;97985.00;5426605;26;20044;-63
2024/05/07 09:06:18;;;;;;;4.70;3.03;;;;;;;13.22;86.20;97988.66;5426350;26;20010;-64
2024/05/07 09:09:04;;;;;;;6.15;2.85;;;;;;;13.17;87.08;97998.59;5451747;26;20013;-65
2024/05/07 09:12:00;;;;;;;5.07;3.00;;;;;;;13.17;86.99;97997.75;5451649;26;20005;-65
2024/05/07 09:14:51;;;;;;;6.03;3.13;;;;;;;13.22;87.44;97999.19;5451587;26;20071;-66
2024/05/07 09:17:38;;;;;;;6.22;3.40;;;;;;;13.10;88.22;98006.94;5426447;26;20009;-62
2024/05/07 09:20:25;;;;;;;5.03;3.40;;;;;;;13.36;87.24;98003.75;5451466;26;20009;-66
2024/05/07 09:23:24;;;;;;;5.03;3.28;;;;;;;13.45;87.57;98001.53;5451262;26;20038;-62
2024/05/07 09:26:10;;;;;;;3.83;2.80;;;;;;;13.57;85.58;98011.41;5426365;26;20009;-66
2024/05/07 09:28:58;;;;;;;4.85;3.00;;;;;;;13.49;85.96;97996.03;5426695;26;20071;-62
2024/05/07 09:31:46;;;;;;;6.95;2.95;;;;;;;13.69;85.92;98015.16;5425779;26;20067;-66
2024/05/07 09:34:36;;;;;;;3.50;2.55;;;;;;;13.53;86.78;98009.91;5452041;26;20010;-67
2024/05/07 09:37:26;;;;;;;4.38;2.78;;;;;;;13.63;87.27;98021.66;5451509;26;20031;-67
2024/05/07 09:40:28;;;;;;;4.43;2.78;;;;;;;13.40;85.10;98021.13;5451027;26;20040;-63
2024/05/07 09:43:25;;;;;;;4.50;3.00;;;;;;;13.41;86.82;98017.53;5428031;26;20063;-61
2024/05/07 09:46:16;;;;;;;4.72;3.10;;;;;;;13.14;87.07;98011.09;5425831;26;20123;-62
2024/05/07 09:49:05;;;;;;;5.35;2.85;;;;;;;13.23;86.91;98021.16;5426064;26;20002;-61
2024/05/07 09:51:52;;;;;;;5.57;3.13;;;;;;;13.11;86.74;98001.59;5425800;26;20045;-60
2024/05/07 09:54:44;;;;;;;5.03;3.00;;;;;;;13.31;87.76;98026.03;5451000;26;20072;-62
2024/05/07 09:57:30;;;;;;;5.47;2.80;;;;;;;13.55;86.35;98021.22;5425745;26;20466;-64
2024/05/07 10:00:16;;;;;;;4.75;2.70;;;;;;;13.45;86.66;98025.28;5451049;26;20013;-61
2024/05/07 10:03:20;;;;;;;5.35;3.03;;;;;;;13.34;86.72;98023.25;5450972;26;20012;-60
2024/05/07 10:06:08;;;;;;;4.07;2.67;;;;;;;13.36;87.94;98031.94;5450431;26;20071;-62
2024/05/07 10:08:55;;;;;;;371.15;158.27;;;;;;;13.55;87.11;98031.78;5452192;26;20064;-62
2024/05/07 10:11:46;;;;;;;13.35;8.38;;;;;;;13.36;85.83;98024.00;5450744;26;20406;-62
2024/05/07 10:14:33;;;;;;;3.70;2.80;;;;;;;13.53;86.21;98007.25;5425458;26;20035;-61
2024/05/07 10:17:18;;;;;;;5.00;2.75;;;;;;;13.63;85.89;98029.56;5450902;26;20067;-62
2024/05/07 10:20:05;;;;;;;2.92;2.25;;;;;;;13.79;84.56;98037.47;5425464;26;20342;-63
2024/05/07 10:23:10;;;;;;;4.22;2.40;;;;;;;13.77;85.58;98050.75;5450526;26;20079;-61
2024/05/07 10:25:57;;;;;;;3.30;2.33;;;;;;;13.77;nan;98047.28;5450505;26;20419;-60
2024/05/07 10:28:43;;;;;;;4.32;2.80;;;;;;;13.77;86.80;98027.00;5425027;26;20461;-60
2024/05/07 10:31:30;;;;;;;4.70;2.40;;;;;;;14.04;85.92;98046.63;5425279;26;20479;-62
2024/05/07 10:34:16;;;;;;;4.38;2.53;;;;;;;13.85;85.11;98050.31;5450386;26;20071;-60
2024/05/07 10:37:03;;;;;;;4.63;2.28;;;;;;;13.86;83.65;98037.97;5450162;26;20006;-62
2024/05/07 10:39:49;;;;;;;3.70;2.38;;;;;;;13.73;83.61;98051.88;5451793;26;20010;-64
2024/05/07 10:42:35;;;;;;;5.38;2.50;;;;;;;13.77;83.95;98056.03;5451525;26;20035;-63
2024/05/07 10:45:21;;;;;;;4.35;2.25;;;;;;;13.89;85.10;98043.94;5453981;26;20006;-63
2024/05/07 10:48:13;;;;;;;3.17;2.20;;;;;;;14.03;84.52;98053.72;5453838;26;20098;-61
2024/05/07 10:51:00;;;;;;;4.10;2.03;;;;;;;14.05;84.21;98025.41;5455193;26;20035;-63
2024/05/07 10:53:52;;;;;;;3.03;2.08;;;;;;;14.12;83.01;98053.19;5428788;26;20438;-61
2024/05/07 10:56:42;;;;;;;2.50;1.98;;;;;;;13.93;82.46;98034.06;5453806;26;20075;-64
2024/05/07 10:59:28;;;;;;;2.75;2.20;;;;;;;13.72;83.84;98039.59;5453742;26;20071;-60
2024/05/07 11:02:17;;;;;;;3.13;1.90;;;;;;;13.65;86.82;98053.25;5453662;26;20005;-61
2024/05/07 11:05:03;;;;;;;3.63;2.50;;;;;;;13.77;85.29;98053.41;5453772;26;20454;-61
2024/05/07 11:07:58;;;;;;;4.57;2.63;;;;;;;13.89;84.11;98058.91;5453928;26;20005;-63
2024/05/07 11:10:44;;;;;;;4.47;2.70;;;;;;;13.83;83.67;98059.28;5428310;26;20010;-60
2024/05/07 11:13:30;;;;;;;4.00;2.80;;;;;;;13.69;85.21;98050.31;5454854;26;20014;-63
2024/05/07 11:16:21;;;;;;;9.57;3.28;;;;;;;13.81;85.79;98063.78;5454727;26;20005;-61
2024/05/07 11:19:09;;;;;;;7.00;2.80;;;;;;;13.82;85.38;98063.72;5453363;26;20005;-62
2024/05/07 11:21:56;;;;;;;5.68;3.10;;;;;;;13.97;84.60;98064.63;5428104;26;20519;-61
2024/05/07 11:24:42;;;;;;;4.38;2.90;;;;;;;13.92;85.29;98059.59;5453017;26;20068;-61
2024/05/07 11:27:28;;;;;;;4.20;2.72;;;;;;;13.79;86.26;98064.72;5453171;26;20048;-65
2024/05/07 11:30:20;;;;;;;5.50;3.28;;;;;;;13.66;86.01;98068.97;5452875;26;20112;-60
2024/05/07 11:33:24;;;;;;;4.18;2.63;;;;;;;13.57;85.04;98070.31;5432299;26;20077;-60
2024/05/07 11:36:10;;;;;;;3.42;2.47;;;;;;;13.53;86.36;98065.31;5453007;26;20005;-61
2024/05/07 11:38:57;;;;;;;4.30;2.60;;;;;;;13.55;86.67;98055.53;5427995;26;20453;-62
2024/05/07 11:41:43;;;;;;;4.72;2.97;;;;;;;13.57;86.63;98067.69;5427505;26;20006;-62
2024/05/07 11:44:32;;;;;;;3.75;2.60;;;;;;;13.45;88.29;98080.72;5454245;26;20010;-63
2024/05/07 11:47:18;;;;;;;3.50;2.47;;;;;;;13.28;88.72;98066.63;5454175;26;20327;-64
2024/05/07 11:50:04;;;;;;;4.55;2.65;;;;;;;13.25;87.95;98077.34;5454083;26;20009;-62
2024/05/07 11:52:56;;;;;;;4.47;2.90;;;;;;;13.26;88.87;98071.09;5454351;26;20044;-60
2024/05/07 11:55:42;;;;;;;3.15;2.20;;;;;;;13.29;87.64;98056.91;5426910;26;20072;-64
2024/05/07 11:58:28;;;;;;;4.03;2.30;;;;;;;13.16;89.55;98060.22;5452654;26;20029;-66
2024/05/07 12:01:14;;;;;;;2.78;2.13;;;;;;;13.42;88.99;98087.03;5453968;26;20071;-64
2024/05/07 12:04:00;;;;;;;2.65;2.05;;;;;;;13.45;87.11;98092.09;5427277;26;20006;-63
2024/05/07 12:06:46;;;;;;;2.90;1.95;;;;;;;13.49;86.96;98098.06;5427354;26;20027;-61
2024/05/07 12:09:33;;;;;;;4.18;2.63;;;;;;;13.43;87.37;98087.84;5452610;26;20010;-60
2024/05/07 12:12:18;;;;;;;2.70;1.88;;;;;;;13.43;85.71;98096.63;5452312;26;20005;-61
2024/05/07 12:15:06;;;;;;;2.95;2.08;;;;;;;13.53;85.78;98095.19;5452428;26;20503;-61
2024/05/07 12:17:52;;;;;;;3.30;2.10;;;;;;;13.51;84.26;98094.44;5427624;26;20519;-61
2024/05/07 12:20:38;;;;;;;2.85;1.90;;;;;;;13.64;83.19;98099.88;5427441;26;20067;-61
2024/05/07 12:26:31;;;;;;;2.67;1.92;;;;;;;13.80;82.07;98105.16;5431640;26;20006;-66
2024/05/07 12:29:17;;;;;;;2.58;1.90;;;;;;;13.60;82.12;98104.47;5453625;26;20059;-62
2024/05/07 12:32:03;;;;;;;3.10;2.00;;;;;;;13.67;81.89;98105.00;5426835;26;20457;-67
2024/05/07 12:34:49;;;;;;;3.67;2.38;;;;;;;13.63;82.98;98114.03;5452677;26;20369;-63
2024/05/07 12:37:35;;;;;;;4.38;2.50;;;;;;;13.54;83.48;98109.22;5428552;26;20005;-64
2024/05/07 12:40:22;;;;;;;4.50;2.58;;;;;;;13.55;83.78;98119.72;5453251;26;20005;-65
2024/05/07 12:43:18;;;;;;;3.97;2.50;;;;;;;13.41;84.27;98122.25;5430135;26;20010;-62
2024/05/07 12:46:06;;;;;;;3.78;2.42;;;;;;;13.43;83.10;98119.53;5452069;26;20005;-62
2024/05/07 12:48:52;;;;;;;3.45;2.40;;;;;;;13.08;81.85;98094.03;5451962;26;20009;-64
2024/05/07 12:51:38;;;;;;;5.38;2.90;;;;;;;13.27;84.47;98130.84;5451885;26;20009;-64
2024/05/07 12:54:24;;;;;;;3.45;2.35;;;;;;;13.39;83.53;98132.88;5452123;26;20006;-63
2024/05/07 12:57:10;;;;;;;5.10;2.42;;;;;;;13.26;83.08;98113.31;5451684;26;20311;-62
2024/05/07 12:59:56;;;;;;;3.35;2.33;;;;;;;13.44;82.79;98134.41;5426921;26;20040;-62
2024/05/07 13:02:43;;;;;;;3.60;2.55;;;;;;;13.20;82.80;98113.66;5453197;26;20376;-65
2024/05/07 13:05:29;;;;;;;3.78;2.75;;;;;;;13.13;82.62;98118.38;5450491;26;20013;-62
2024/05/07 13:08:16;;;;;;;3.05;2.25;;;;;;;13.21;83.41;98134.69;5426626;26;20004;-63
2024/05/07 13:11:02;;;;;;;4.00;2.70;;;;;;;13.20;83.89;98137.38;5426681;26;20450;-65
2024/05/07 13:13:48;;;;;;;3.42;2.30;;;;;;;13.08;81.90;98101.94;5453154;26;20474;-64